createdAt,value
2019-02-28T00:00:42.742Z,52.20
2019-02-28T00:03:12.471Z,52.50
2019-02-28T00:05:42.337Z,52.10
2019-02-28T00:08:12.055Z,52.10
2019-02-28T00:10:42.123Z,52.20
2019-02-28T00:13:30.753Z,53.20
2019-02-28T00:16:03.021Z,52.00
2019-02-28T00:18:50.700Z,52.60
2019-02-28T00:24:20.134Z,52.30
2019-02-28T00:26:50.086Z,52.50
2019-02-28T00:29:20.295Z,52.10
2019-02-28T00:38:00.069Z,53.10
2019-02-28T00:40:41.655Z,52.60
2019-02-28T00:43:25.182Z,53.10
2019-02-28T00:45:54.487Z,53.40
2019-02-28T00:51:45.110Z,53.50
2019-02-28T00:57:36.070Z,54.00
2019-02-28T01:00:25.142Z,53.50
2019-02-28T01:03:13.927Z,53.50
2019-02-28T01:06:02.783Z,53.50
2019-02-28T01:08:53.017Z,54.10
2019-02-28T01:11:44.761Z,53.70
2019-02-28T01:14:32.398Z,53.90
2019-02-28T01:17:24.081Z,54.10
2019-02-28T01:20:16.153Z,53.60
2019-02-28T01:22:45.360Z,53.80
2019-02-28T01:25:16.205Z,54.90
2019-02-28T01:27:45.920Z,55.20
2019-02-28T01:30:17.663Z,55.40
2019-02-28T01:32:50.937Z,55.50
2019-02-28T01:35:40.755Z,55.20
2019-02-28T01:38:09.632Z,55.10
2019-02-28T01:40:58.328Z,56.10
2019-02-28T01:43:47.913Z,55.30
2019-02-28T01:46:18.843Z,55.60
2019-02-28T01:49:27.736Z,55.80
2019-02-28T01:52:17.349Z,55.00
2019-02-28T01:55:06.057Z,56.20
2019-02-28T01:57:55.121Z,55.50
2019-02-28T02:00:45.101Z,56.20
2019-02-28T02:03:33.738Z,56.70
2019-02-28T02:12:31.663Z,57.20
2019-02-28T02:15:02.118Z,56.50
2019-02-28T02:17:52.296Z,56.70
2019-02-28T02:20:33.695Z,56.90
2019-02-28T02:26:11.879Z,56.80
2019-02-28T02:28:54.404Z,57.80
2019-02-28T02:31:37.801Z,58.40
2019-02-28T02:34:09.131Z,57.90
2019-02-28T02:36:43.585Z,58.20
2019-02-28T02:39:17.571Z,59.00
2019-02-28T02:45:03.697Z,58.30
2019-02-28T02:47:50.116Z,59.50
2019-02-28T02:50:39.220Z,60.80
2019-02-28T02:53:28.029Z,58.70
2019-02-28T02:56:03.618Z,59.70
2019-02-28T02:58:28.979Z,59.60
2019-02-28T03:00:58.969Z,59.50
2019-02-28T03:03:28.552Z,59.80
2019-02-28T03:05:58.110Z,59.90
2019-02-28T03:08:27.608Z,59.80
2019-02-28T03:10:57.185Z,60.60
2019-02-28T03:13:26.751Z,59.40
2019-02-28T03:15:59.206Z,59.20
2019-02-28T03:18:28.072Z,59.20
2019-02-28T03:20:57.632Z,59.10
2019-02-28T03:23:27.544Z,59.40
2019-02-28T03:26:05.307Z,59.40
2019-02-28T03:28:32.083Z,59.00
2019-02-28T03:31:11.538Z,59.60
2019-02-28T03:33:30.695Z,59.50
2019-02-28T03:36:00.756Z,59.30
2019-02-28T03:38:30.590Z,59.50
2019-02-28T03:41:00.139Z,59.10
2019-02-28T03:43:29.697Z,59.70
2019-02-28T03:45:59.304Z,59.80
2019-02-28T03:48:34.677Z,60.00
2019-02-28T03:51:00.800Z,59.60
2019-02-28T03:53:30.382Z,60.40
2019-02-28T03:56:00.412Z,59.90
2019-02-28T03:58:31.398Z,60.00
2019-02-28T04:01:00.918Z,59.90
2019-02-28T04:03:33.728Z,60.30
2019-02-28T04:06:03.669Z,60.60
2019-02-28T04:08:32.851Z,60.30
2019-02-28T04:11:02.419Z,61.00
2019-02-28T04:13:32.298Z,60.50
2019-02-28T04:16:08.744Z,60.70
2019-02-28T04:18:33.199Z,61.00
2019-02-28T04:21:02.773Z,60.80
2019-02-28T04:23:35.963Z,61.40
2019-02-28T04:26:03.547Z,61.60
2019-02-28T04:28:33.063Z,61.50
2019-02-28T04:31:03.109Z,61.10
2019-02-28T04:33:37.371Z,62.00
2019-02-28T04:36:04.193Z,62.10
2019-02-28T04:38:33.772Z,62.40
2019-02-28T04:41:03.258Z,62.10
2019-02-28T04:43:32.843Z,62.20
2019-02-28T04:46:02.407Z,62.70
2019-02-28T04:48:31.947Z,62.50
2019-02-28T04:51:02.292Z,62.50
2019-02-28T04:53:32.729Z,62.70
2019-02-28T04:56:02.217Z,62.50
2019-02-28T04:58:31.809Z,63.70
2019-02-28T05:01:01.347Z,63.00
2019-02-28T05:03:30.908Z,63.30
2019-02-28T05:06:00.832Z,63.60
2019-02-28T05:08:30.470Z,63.20
2019-02-28T05:11:00.066Z,63.30
2019-02-28T05:13:29.731Z,63.60
2019-02-28T05:15:59.675Z,63.50
2019-02-28T05:18:29.236Z,63.30
2019-02-28T05:20:59.195Z,63.50
2019-02-28T05:23:28.800Z,63.50
2019-02-28T05:25:58.384Z,63.70
2019-02-28T05:28:27.900Z,63.90
2019-02-28T05:30:57.804Z,64.10
2019-02-28T05:33:27.515Z,64.20
2019-02-28T05:35:57.224Z,64.50
2019-02-28T05:38:28.226Z,64.60
2019-02-28T05:40:58.290Z,64.60
2019-02-28T05:43:29.310Z,64.70
2019-02-28T05:45:59.481Z,64.80
2019-02-28T05:48:29.121Z,64.40
2019-02-28T05:50:58.718Z,64.10
2019-02-28T05:53:28.219Z,64.10
2019-02-28T05:55:59.720Z,64.20
2019-02-28T05:58:28.905Z,64.30
2019-02-28T06:00:58.487Z,64.50
2019-02-28T06:03:29.559Z,65.00
2019-02-28T06:05:59.275Z,65.00
2019-02-28T06:08:28.787Z,65.10
2019-02-28T06:11:00.689Z,65.60
2019-02-28T06:13:29.547Z,65.80
2019-02-28T06:15:59.375Z,65.60
2019-02-28T06:18:32.701Z,65.80
2019-02-28T06:21:00.722Z,65.90
2019-02-28T06:23:30.357Z,66.10
2019-02-28T06:26:00.769Z,66.70
2019-02-28T06:28:30.976Z,67.10
2019-02-28T06:31:01.611Z,67.60
2019-02-28T06:33:33.588Z,68.50
2019-02-28T06:36:04.555Z,68.70
2019-02-28T06:38:34.369Z,68.30
2019-02-28T06:41:04.257Z,68.20
2019-02-28T06:43:35.090Z,67.80
2019-02-28T06:46:04.678Z,67.90
2019-02-28T06:48:41.766Z,67.80
2019-02-28T06:51:11.303Z,67.90
2019-02-28T06:53:42.280Z,69.10
2019-02-28T06:56:11.985Z,68.30
2019-02-28T06:58:41.584Z,68.30
2019-02-28T07:01:11.211Z,68.10
2019-02-28T07:03:42.492Z,68.20
2019-02-28T07:06:12.311Z,68.50
2019-02-28T07:08:41.875Z,68.20
2019-02-28T07:11:11.498Z,67.90
2019-02-28T07:13:41.129Z,68.30
2019-02-28T07:16:10.756Z,68.90
2019-02-28T07:18:40.326Z,68.20
2019-02-28T07:21:10.391Z,67.80
2019-02-28T07:23:39.924Z,67.70
2019-02-28T07:26:28.476Z,67.80
2019-02-28T07:28:57.994Z,66.80
2019-02-28T07:31:27.581Z,67.80
2019-02-28T07:33:57.162Z,67.40
2019-02-28T07:36:26.718Z,67.20
2019-02-28T07:38:57.787Z,68.40
2019-02-28T07:41:27.653Z,67.80
2019-02-28T07:43:59.008Z,67.80
2019-02-28T07:46:28.499Z,67.90
2019-02-28T07:49:00.929Z,68.00
2019-02-28T07:51:29.272Z,67.40
2019-02-28T07:53:58.840Z,67.90
2019-02-28T07:56:28.441Z,68.20
2019-02-28T07:58:57.958Z,68.80
2019-02-28T08:01:28.505Z,68.80
2019-02-28T08:03:58.111Z,69.10
2019-02-28T08:06:27.677Z,68.90
2019-02-28T08:08:57.207Z,69.00
2019-02-28T08:11:26.796Z,68.50
2019-02-28T08:13:56.421Z,67.90
2019-02-28T08:16:26.019Z,68.50
2019-02-28T08:18:55.665Z,67.20
2019-02-28T08:21:25.608Z,68.10
2019-02-28T08:23:55.160Z,66.90
2019-02-28T08:26:24.735Z,66.60
2019-02-28T08:28:54.221Z,66.30
2019-02-28T08:31:23.910Z,65.80
2019-02-28T08:33:53.795Z,65.70
2019-02-28T08:36:23.378Z,65.70
2019-02-28T08:38:52.957Z,65.20
2019-02-28T08:41:25.784Z,65.30
2019-02-28T08:43:53.762Z,65.00
2019-02-28T08:46:23.389Z,65.00
2019-02-28T08:48:53.483Z,64.50
2019-02-28T08:51:23.173Z,64.30
2019-02-28T08:53:52.746Z,63.80
2019-02-28T08:56:22.605Z,63.60
2019-02-28T08:58:52.169Z,63.80
2019-02-28T09:01:43.485Z,63.60
2019-02-28T09:04:31.136Z,62.60
2019-02-28T09:10:11.829Z,63.30
2019-02-28T09:12:58.506Z,63.20
2019-02-28T09:15:46.972Z,62.30
2019-02-28T09:18:28.601Z,62.90
2019-02-28T09:21:09.820Z,62.30
2019-02-28T09:23:51.204Z,61.20
2019-02-28T09:26:32.632Z,61.20
2019-02-28T09:40:48.838Z,60.30
2019-02-28T09:43:30.711Z,59.80
2019-02-28T09:46:12.441Z,59.20
2019-02-28T09:48:42.887Z,59.70
2019-02-28T09:51:32.748Z,59.40
2019-02-28T09:54:24.403Z,58.90
2019-02-28T09:57:12.047Z,59.10
2019-02-28T10:00:00.601Z,58.50
2019-02-28T10:02:49.044Z,58.70
2019-02-28T10:05:38.894Z,58.20
2019-02-28T10:08:27.675Z,58.00
2019-02-28T10:11:16.216Z,58.00
2019-02-28T10:14:04.987Z,57.40
2019-02-28T10:16:53.560Z,57.90
2019-02-28T10:22:23.987Z,58.00
2019-02-28T10:27:48.037Z,57.40
2019-02-28T10:33:17.038Z,57.50
2019-02-28T10:38:47.365Z,56.00
2019-02-28T10:41:35.960Z,56.20
2019-02-28T10:44:30.300Z,56.10
2019-02-28T10:47:14.818Z,55.50
2019-02-28T10:50:03.475Z,56.00
2019-02-28T10:52:52.024Z,55.90
2019-02-28T10:58:36.424Z,55.60
2019-02-28T11:01:25.117Z,55.50
2019-02-28T11:04:13.710Z,55.70
2019-02-28T11:07:03.038Z,55.40
2019-02-28T11:10:12.096Z,55.40
2019-02-28T11:13:03.238Z,55.40
2019-02-28T11:15:51.838Z,55.40
2019-02-28T11:18:46.341Z,55.70
2019-02-28T11:21:29.849Z,56.00
2019-02-28T11:24:10.435Z,55.10
2019-02-28T11:26:41.345Z,55.70
2019-02-28T11:35:34.671Z,54.30
2019-02-28T11:38:23.413Z,54.60
2019-02-28T11:49:41.676Z,54.70
2019-02-28T11:52:24.526Z,54.20
2019-02-28T11:55:11.377Z,54.20
2019-02-28T11:57:59.943Z,53.10
2019-02-28T12:00:48.546Z,52.80
2019-02-28T12:03:37.065Z,52.20
2019-02-28T12:09:21.429Z,50.80
2019-02-28T12:20:58.644Z,49.80
2019-02-28T12:23:40.492Z,48.90
2019-02-28T12:26:10.390Z,48.20
2019-02-28T12:29:13.843Z,47.40
2019-02-28T12:31:49.283Z,46.70
2019-02-28T12:34:37.970Z,47.40
2019-02-28T12:37:28.176Z,48.40
2019-02-28T12:40:17.799Z,46.70
2019-02-28T12:51:58.356Z,46.70
2019-02-28T12:54:46.880Z,45.30
2019-02-28T13:07:01.775Z,43.00
2019-02-28T13:09:31.438Z,43.60
2019-02-28T13:12:00.991Z,43.90
2019-02-28T13:14:49.613Z,44.40
2019-02-28T13:17:38.111Z,43.50
2019-02-28T13:20:32.163Z,44.10
2019-02-28T13:22:59.453Z,43.60
2019-02-28T13:25:48.523Z,44.20
2019-02-28T13:28:37.101Z,44.70
2019-02-28T13:31:26.951Z,45.40
2019-02-28T13:34:15.672Z,45.80
2019-02-28T13:37:04.425Z,45.70
2019-02-28T13:39:53.077Z,46.10
2019-02-28T13:43:01.897Z,46.20
2019-02-28T13:45:22.156Z,46.00
2019-02-28T13:47:48.936Z,46.70
2019-02-28T14:00:08.012Z,46.30
2019-02-28T14:03:17.370Z,46.60
2019-02-28T14:06:12.160Z,47.10
2019-02-28T14:08:58.941Z,46.50
2019-02-28T14:11:47.027Z,46.20
2019-02-28T14:17:17.412Z,46.00
2019-02-28T14:19:58.920Z,45.70
2019-02-28T14:22:42.770Z,45.70
2019-02-28T14:25:23.682Z,45.40
2019-02-28T14:33:57.011Z,46.60
2019-02-28T14:36:38.505Z,46.60
2019-02-28T14:39:20.575Z,46.70
2019-02-28T14:42:03.093Z,46.20
2019-02-28T14:44:44.188Z,47.10
2019-02-28T14:47:28.442Z,47.20
2019-02-28T14:52:57.729Z,47.20
2019-02-28T14:55:39.196Z,47.70
2019-02-28T14:58:09.006Z,48.10
2019-02-28T15:00:44.531Z,48.10
2019-02-28T15:03:35.906Z,48.10
2019-02-28T15:06:26.335Z,48.30
2019-02-28T15:09:15.084Z,48.40
2019-02-28T15:12:03.655Z,48.10
2019-02-28T15:14:33.270Z,48.20
2019-02-28T15:17:06.851Z,48.50
2019-02-28T15:19:34.328Z,48.60
2019-02-28T15:22:04.051Z,48.50
2019-02-28T15:24:34.073Z,47.30
2019-02-28T15:27:04.390Z,46.10
2019-02-28T15:29:35.294Z,44.70
2019-02-28T15:32:04.851Z,43.20
2019-02-28T15:34:37.436Z,41.90
2019-02-28T15:37:05.873Z,41.60
2019-02-28T15:39:35.403Z,40.70
2019-02-28T15:42:05.466Z,40.30
2019-02-28T15:44:36.585Z,39.80
2019-02-28T15:47:06.411Z,39.70
2019-02-28T15:49:35.963Z,39.80
2019-02-28T15:52:06.306Z,40.00
2019-02-28T15:54:35.943Z,40.60
2019-02-28T15:57:05.492Z,41.30
2019-02-28T15:59:35.078Z,42.40
2019-02-28T16:02:06.254Z,43.70
2019-02-28T16:04:36.678Z,45.20
2019-02-28T16:07:06.358Z,46.60
2019-02-28T16:09:35.941Z,47.20
2019-02-28T16:12:05.560Z,47.90
2019-02-28T16:14:35.854Z,48.80
2019-02-28T16:17:05.948Z,49.20
2019-02-28T16:19:35.491Z,49.60
2019-02-28T16:22:05.383Z,50.00
2019-02-28T16:24:36.690Z,50.30
2019-02-28T16:27:06.121Z,50.70
2019-02-28T16:29:35.699Z,51.20
2019-02-28T16:32:05.283Z,51.50
2019-02-28T16:34:34.804Z,52.10
2019-02-28T16:37:04.363Z,52.50
2019-02-28T16:39:33.976Z,52.70
2019-02-28T16:42:03.457Z,52.60
2019-02-28T16:44:33.005Z,53.00
2019-02-28T16:47:02.516Z,53.10
2019-02-28T16:49:32.060Z,53.80
2019-02-28T16:52:02.594Z,54.20
2019-02-28T16:54:32.843Z,54.60
2019-02-28T16:57:02.496Z,54.90
2019-02-28T16:59:32.516Z,55.30
2019-02-28T17:02:03.008Z,55.60
2019-02-28T17:04:32.676Z,56.00
2019-02-28T17:07:02.752Z,56.20
2019-02-28T17:09:42.181Z,56.10
2019-02-28T17:12:29.457Z,56.00
2019-02-28T17:14:59.001Z,56.40
2019-02-28T17:17:33.484Z,56.40
2019-02-28T17:20:06.164Z,56.20
2019-02-28T17:22:34.301Z,56.30
2019-02-28T17:25:03.908Z,56.30
2019-02-28T17:27:48.084Z,56.60
2019-02-28T17:30:39.746Z,56.40
2019-02-28T17:33:09.866Z,56.70
2019-02-28T17:35:39.484Z,56.80
2019-02-28T17:38:08.994Z,56.80
2019-02-28T17:40:38.843Z,57.40
2019-02-28T17:43:08.820Z,57.20
2019-02-28T17:45:39.184Z,57.00
2019-02-28T17:49:01.372Z,57.20
2019-02-28T17:51:58.550Z,56.90
2019-02-28T17:55:12.494Z,57.20
2019-02-28T17:58:09.701Z,56.80
2019-02-28T18:01:02.029Z,56.70
2019-02-28T18:04:24.064Z,56.90
2019-02-28T18:07:28.121Z,57.00
2019-02-28T18:10:30.203Z,56.90
2019-02-28T18:13:27.828Z,56.60
2019-02-28T18:16:37.520Z,56.70
2019-02-28T18:20:00.179Z,57.20
2019-02-28T18:23:17.005Z,57.10
2019-02-28T18:26:19.897Z,56.70
2019-02-28T18:29:14.612Z,57.00
2019-02-28T18:31:44.228Z,57.60
2019-02-28T18:34:21.364Z,58.30
2019-02-28T18:36:51.593Z,58.40
2019-02-28T18:39:21.162Z,58.30
2019-02-28T18:41:50.916Z,58.70
2019-02-28T18:44:20.476Z,58.90
2019-02-28T18:46:50.161Z,58.80
2019-02-28T18:49:20.199Z,59.00
2019-02-28T18:51:50.220Z,59.00
2019-02-28T18:54:19.930Z,59.30
2019-02-28T18:56:49.666Z,59.50
2019-02-28T18:59:19.179Z,59.60
2019-02-28T19:01:48.802Z,59.60
2019-02-28T19:04:18.422Z,59.70
2019-02-28T19:06:47.988Z,59.70
2019-02-28T19:09:24.809Z,60.50
2019-02-28T19:11:54.385Z,60.00
2019-02-28T19:14:24.065Z,60.10
2019-02-28T19:16:53.693Z,60.30
2019-02-28T19:19:23.269Z,60.50
2019-02-28T19:21:52.867Z,60.90
2019-02-28T19:24:22.395Z,61.20
2019-02-28T19:26:52.059Z,61.10
2019-02-28T19:29:21.702Z,61.30
2019-02-28T19:31:51.361Z,61.80
2019-02-28T19:34:21.012Z,61.50
2019-02-28T19:36:50.623Z,61.70
2019-02-28T19:39:20.213Z,61.80
2019-02-28T19:41:49.772Z,61.90
2019-02-28T19:44:19.307Z,62.00
2019-02-28T19:46:48.817Z,62.10
2019-02-28T19:49:18.368Z,62.20
2019-02-28T19:51:47.977Z,62.30
2019-02-28T19:54:17.569Z,62.90
2019-02-28T19:56:47.202Z,63.30
2019-02-28T19:59:16.736Z,63.50
2019-02-28T20:01:46.371Z,64.40
2019-02-28T20:04:15.946Z,64.90
2019-02-28T20:06:45.621Z,65.30
2019-02-28T20:09:15.264Z,65.60
2019-02-28T20:11:44.950Z,66.60
2019-02-28T20:14:14.498Z,66.80
2019-02-28T20:16:44.416Z,66.90
2019-02-28T20:19:13.931Z,67.50
2019-02-28T20:21:43.475Z,67.60
2019-02-28T20:24:13.080Z,67.90
2019-02-28T20:26:43.370Z,68.20
2019-02-28T20:29:13.015Z,68.90
2019-02-28T20:31:42.644Z,68.70
2019-02-28T20:34:12.175Z,69.10
2019-02-28T20:36:42.141Z,69.40
2019-02-28T20:39:13.640Z,69.70
2019-02-28T20:41:43.287Z,70.20
2019-02-28T20:44:12.873Z,70.20
2019-02-28T20:46:42.459Z,70.40
2019-02-28T20:49:12.049Z,70.60
2019-02-28T20:51:41.595Z,70.70
2019-02-28T20:54:11.195Z,71.00
2019-02-28T20:56:41.242Z,70.90
2019-02-28T20:59:10.841Z,71.00
2019-02-28T21:01:40.360Z,70.90
2019-02-28T21:04:09.835Z,70.90
2019-02-28T21:06:39.419Z,70.80
2019-02-28T21:09:09.563Z,70.90
2019-02-28T21:11:39.176Z,71.00
2019-02-28T21:14:38.541Z,71.10
2019-02-28T21:17:29.580Z,71.10
2019-02-28T21:20:17.394Z,71.10
2019-02-28T21:23:06.008Z,71.30
2019-02-28T21:25:54.613Z,71.40
2019-02-28T21:31:45.279Z,71.60
2019-02-28T21:34:35.564Z,71.40
2019-02-28T21:37:25.231Z,71.70
2019-02-28T21:40:14.551Z,72.20
2019-02-28T21:43:03.167Z,72.10
2019-02-28T21:45:51.763Z,72.30
2019-02-28T21:48:40.398Z,72.20
2019-02-28T21:51:29.190Z,72.50
2019-02-28T21:54:10.034Z,72.60
2019-02-28T21:59:39.866Z,72.20
2019-02-28T22:08:07.203Z,73.00
2019-02-28T22:10:47.992Z,72.70
2019-02-28T22:16:25.831Z,72.40
2019-02-28T22:21:56.191Z,73.30
2019-02-28T22:27:40.391Z,73.00
2019-02-28T22:33:42.178Z,73.30
2019-02-28T22:36:27.439Z,73.50
2019-02-28T22:42:05.240Z,73.70
2019-02-28T22:44:46.561Z,73.70
2019-02-28T22:47:28.148Z,73.50
2019-02-28T22:50:09.143Z,73.80
2019-02-28T22:52:51.419Z,73.80
2019-02-28T22:55:33.051Z,74.80
2019-02-28T22:58:14.714Z,73.90
2019-02-28T23:06:41.680Z,74.20
2019-02-28T23:09:11.970Z,74.70
2019-02-28T23:15:01.587Z,75.40
2019-02-28T23:23:43.749Z,77.10
2019-02-28T23:32:41.851Z,79.00
2019-02-28T23:35:32.090Z,79.20
2019-02-28T23:41:29.473Z,82.50
2019-02-28T23:44:18.262Z,81.60
2019-02-28T23:47:06.870Z,82.60
2019-02-28T23:49:38.159Z,81.90
2019-02-28T23:52:26.725Z,83.00
2019-02-28T23:55:15.320Z,83.30
2019-02-28T23:57:56.187Z,83.40
